Time,TemperatureF,DewpointF,PressureIn,WindDirection,WindDirectionDegrees,WindSpeedMPH,WindSpeedGustMPH,Humidity,HourlyPrecipIn,Conditions,Clouds,dailyrainin,SoftwareType,DateUTC
2013-03-17 00:03:00,40.3,38.2,30.19,North,-999,-999.0,-999.0,92,0.00,,,0.00,AD6XL-WX-0.1,2013-03-17 07:03:00,
2013-03-17 00:09:00,40.1,38.1,30.20,North,-999,-999.0,-999.0,92,0.00,,,0.00,AD6XL-WX-0.1,2013-03-17 07:09:00,
2013-03-17 00:14:00,40.0,38.1,30.20,North,-999,-999.0,-999.0,92,0.00,,,0.00,AD6XL-WX-0.1,2013-03-17 07:14:00,
2013-03-17 00:19:00,39.9,38.1,30.20,North,-999,-999.0,-999.0,93,0.00,,,0.00,AD6XL-WX-0.1,2013-03-17 07:19:00,
2013-03-17 00:24:00,39.6,37.9,30.20,North,-999,-999.0,-999.0,93,0.00,,,0.00,AD6XL-WX-0.1,2013-03-17 07:24:00,
2013-03-17 00:29:00,39.2,37.6,30.20,North,-999,-999.0,-999.0,93,0.00,,,0.00,AD6XL-WX-0.1,2013-03-17 07:29:00,
2013-03-17 00:34:00,38.9,37.5,30.20,North,-999,-999.0,-999.0,94,0.00,,,0.00,AD6XL-WX-0.1,2013-03-17 07:34:00,
2013-03-17 00:39:00,38.6,37.3,30.20,North,-999,-999.0,-999.0,95,0.00,,,0.00,AD6XL-WX-0.1,2013-03-17 07:39:00,
2013-03-17 00:44:00,38.3,37.1,30.20,North,-999,-999.0,-999.0,95,0.00,,,0.00,AD6XL-WX-0.1,2013-03-17 07:44:00,
2013-03-17 00:49:00,38.1,36.9,30.20,North,-999,-999.0,-999.0,95,0.00,,,0.00,AD6XL-WX-0.1,2013-03-17 07:49:00,
2013-03-17 00:54:00,38.0,36.9,30.20,North,-999,-999.0,-999.0,95,0.00,,,0.00,AD6XL-WX-0.1,2013-03-17 07:54:00,
2013-03-17 00:59:00,38.1,37.1,30.20,North,-999,-999.0,-999.0,96,0.00,,,0.00,AD6XL-WX-0.1,2013-03-17 07:59:00,
2013-03-17 01:04:00,38.1,37.2,30.20,North,-999,-999.0,-999.0,96,0.00,,,0.00,AD6XL-WX-0.1,2013-03-17 08:04:00,
2013-03-17 01:09:00,38.0,37.4,30.20,North,-999,-999.0,-999.0,97,0.00,,,0.00,AD6XL-WX-0.1,2013-03-17 08:09:00,
2013-03-17 01:14:00,37.9,37.4,30.20,North,-999,-999.0,-999.0,98,0.00,,,0.00,AD6XL-WX-0.1,2013-03-17 08:14:00,
2013-03-17 01:20:00,37.8,37.3,30.20,North,-999,-999.0,-999.0,98,0.00,,,0.00,AD6XL-WX-0.1,2013-03-17 08:20:00,
2013-03-17 01:25:00,37.8,37.3,30.20,North,-999,-999.0,-999.0,98,0.00,,,0.00,AD6XL-WX-0.1,2013-03-17 08:25:00,
2013-03-17 01:30:00,37.8,37.3,30.21,North,-999,-999.0,-999.0,98,0.00,,,0.00,AD6XL-WX-0.1,2013-03-17 08:30:00,
2013-03-17 01:35:00,37.8,37.3,30.21,North,-999,-999.0,-999.0,98,0.00,,,0.00,AD6XL-WX-0.1,2013-03-17 08:35:00,
2013-03-17 01:40:00,38.0,37.5,30.21,North,-999,-999.0,-999.0,97,0.00,,,0.00,AD6XL-WX-0.1,2013-03-17 08:40:00,
2013-03-17 01:45:00,38.0,37.5,30.21,North,-999,-999.0,-999.0,98,0.00,,,0.00,AD6XL-WX-0.1,2013-03-17 08:45:00,
2013-03-17 01:50:00,38.0,37.5,30.21,North,-999,-999.0,-999.0,98,0.00,,,0.00,AD6XL-WX-0.1,2013-03-17 08:50:00,
2013-03-17 01:55:00,37.9,37.6,30.21,North,-999,-999.0,-999.0,98,0.00,,,0.00,AD6XL-WX-0.1,2013-03-17 08:55:00,
2013-03-17 02:00:00,37.9,37.7,30.22,North,-999,-999.0,-999.0,99,0.00,,,0.00,AD6XL-WX-0.1,2013-03-17 09:00:00,
2013-03-17 02:05:00,37.9,37.7,30.22,North,-999,-999.0,-999.0,99,0.00,,,0.00,AD6XL-WX-0.1,2013-03-17 09:05:00,
2013-03-17 02:10:00,37.9,37.7,30.22,North,-999,-999.0,-999.0,99,0.00,,,0.00,AD6XL-WX-0.1,2013-03-17 09:10:00,
2013-03-17 02:15:00,37.8,37.7,30.22,North,-999,-999.0,-999.0,99,0.00,,,0.00,AD6XL-WX-0.1,2013-03-17 09:15:00,
2013-03-17 02:20:00,37.8,37.7,30.22,North,-999,-999.0,-999.0,99,0.00,,,0.00,AD6XL-WX-0.1,2013-03-17 09:20:00,
2013-03-17 02:26:00,37.7,37.6,30.23,North,-999,-999.0,-999.0,99,0.00,,,0.00,AD6XL-WX-0.1,2013-03-17 09:26:00,
2013-03-17 02:31:00,37.6,37.5,30.23,North,-999,-999.0,-999.0,99,0.00,,,0.00,AD6XL-WX-0.1,2013-03-17 09:31:00,
2013-03-17 02:36:00,37.5,37.3,30.23,North,-999,-999.0,-999.0,99,0.00,,,0.00,AD6XL-WX-0.1,2013-03-17 09:36:00,
2013-03-17 02:41:00,37.3,37.1,30.23,North,-999,-999.0,-999.0,99,0.00,,,0.00,AD6XL-WX-0.1,2013-03-17 09:41:00,
2013-03-17 02:46:00,37.2,37.0,30.23,North,-999,-999.0,-999.0,99,0.00,,,0.00,AD6XL-WX-0.1,2013-03-17 09:46:00,
2013-03-17 02:51:00,37.2,36.9,30.23,North,-999,-999.0,-999.0,99,0.00,,,0.00,AD6XL-WX-0.1,2013-03-17 09:51:00,
2013-03-17 02:56:00,37.0,36.8,30.24,North,-999,-999.0,-999.0,99,0.00,,,0.00,AD6XL-WX-0.1,2013-03-17 09:56:00,
2013-03-17 03:01:00,37.0,36.8,30.24,North,-999,-999.0,-999.0,99,0.00,,,0.00,AD6XL-WX-0.1,2013-03-17 10:01:00,
2013-03-17 03:06:00,36.9,36.8,30.24,North,-999,-999.0,-999.0,99,0.00,,,0.00,AD6XL-WX-0.1,2013-03-17 10:06:00,
2013-03-17 03:11:00,36.9,36.8,30.24,North,-999,-999.0,-999.0,99,0.00,,,0.00,AD6XL-WX-0.1,2013-03-17 10:11:00,
2013-03-17 03:17:00,36.9,36.8,30.24,North,-999,-999.0,-999.0,99,0.00,,,0.00,AD6XL-WX-0.1,2013-03-17 10:17:00,
2013-03-17 03:22:00,36.9,36.8,30.24,North,-999,-999.0,-999.0,99,0.00,,,0.00,AD6XL-WX-0.1,2013-03-17 10:22:00,
2013-03-17 03:27:00,36.9,36.8,30.24,North,-999,-999.0,-999.0,99,0.00,,,0.00,AD6XL-WX-0.1,2013-03-17 10:27:00,
2013-03-17 03:32:00,36.9,36.9,30.25,North,-999,-999.0,-999.0,99,0.00,,,0.00,AD6XL-WX-0.1,2013-03-17 10:32:00,
2013-03-17 03:37:00,36.8,36.8,30.25,North,-999,-999.0,-999.0,99,0.00,,,0.00,AD6XL-WX-0.1,2013-03-17 10:37:00,
2013-03-17 03:42:00,36.7,36.7,30.25,North,-999,-999.0,-999.0,99,0.00,,,0.00,AD6XL-WX-0.1,2013-03-17 10:42:00,
2013-03-17 03:47:00,36.7,36.7,30.25,North,-999,-999.0,-999.0,100,0.00,,,0.00,AD6XL-WX-0.1,2013-03-17 10:47:00,
2013-03-17 03:52:00,36.6,36.6,30.25,North,-999,-999.0,-999.0,100,0.00,,,0.00,AD6XL-WX-0.1,2013-03-17 10:52:00,
2013-03-17 03:57:00,36.5,36.5,30.25,North,-999,-999.0,-999.0,100,0.00,,,0.00,AD6XL-WX-0.1,2013-03-17 10:57:00,
2013-03-17 04:02:00,36.3,36.3,30.25,North,-999,-999.0,-999.0,100,0.00,,,0.00,AD6XL-WX-0.1,2013-03-17 11:02:00,
2013-03-17 04:08:00,36.1,36.1,30.25,North,-999,-999.0,-999.0,100,0.00,,,0.00,AD6XL-WX-0.1,2013-03-17 11:08:00,
2013-03-17 04:13:00,36.0,36.0,30.25,North,-999,-999.0,-999.0,100,0.00,,,0.00,AD6XL-WX-0.1,2013-03-17 11:13:00,
2013-03-17 04:18:00,35.8,35.8,30.25,North,-999,-999.0,-999.0,100,0.00,,,0.00,AD6XL-WX-0.1,2013-03-17 11:18:00,
2013-03-17 04:23:00,35.7,35.7,30.25,North,-999,-999.0,-999.0,100,0.00,,,0.00,AD6XL-WX-0.1,2013-03-17 11:23:00,
2013-03-17 04:28:00,35.5,35.5,30.25,North,-999,-999.0,-999.0,100,0.00,,,0.00,AD6XL-WX-0.1,2013-03-17 11:28:00,
2013-03-17 04:33:00,35.4,35.4,30.26,North,-999,-999.0,-999.0,100,0.00,,,0.00,AD6XL-WX-0.1,2013-03-17 11:33:00,
2013-03-17 04:38:00,35.3,35.3,30.26,North,-999,-999.0,-999.0,100,0.00,,,0.00,AD6XL-WX-0.1,2013-03-17 11:38:00,
2013-03-17 04:43:00,35.2,35.2,30.26,North,-999,-999.0,-999.0,100,0.00,,,0.00,AD6XL-WX-0.1,2013-03-17 11:43:00,
2013-03-17 04:48:00,35.5,35.5,30.26,North,-999,-999.0,-999.0,100,0.00,,,0.00,AD6XL-WX-0.1,2013-03-17 11:48:00,
2013-03-17 04:53:00,35.9,35.9,30.26,North,-999,-999.0,-999.0,100,0.00,,,0.00,AD6XL-WX-0.1,2013-03-17 11:53:00,
2013-03-17 04:58:00,36.1,36.1,30.26,North,-999,-999.0,-999.0,100,0.00,,,0.00,AD6XL-WX-0.1,2013-03-17 11:58:00,
2013-03-17 05:03:00,36.5,36.5,30.26,North,-999,-999.0,-999.0,100,0.00,,,0.00,AD6XL-WX-0.1,2013-03-17 12:03:00,
2013-03-17 05:09:00,36.7,36.7,30.26,North,-999,-999.0,-999.0,99,0.00,,,0.00,AD6XL-WX-0.1,2013-03-17 12:09:00,
2013-03-17 05:14:00,36.9,36.9,30.26,North,-999,-999.0,-999.0,99,0.00,,,0.00,AD6XL-WX-0.1,2013-03-17 12:14:00,
2013-03-17 05:19:00,36.9,36.9,30.26,North,-999,-999.0,-999.0,99,0.00,,,0.00,AD6XL-WX-0.1,2013-03-17 12:19:00,
2013-03-17 05:24:00,36.8,36.8,30.26,North,-999,-999.0,-999.0,100,0.00,,,0.00,AD6XL-WX-0.1,2013-03-17 12:24:00,
2013-03-17 05:29:00,36.7,36.7,30.27,North,-999,-999.0,-999.0,100,0.00,,,0.00,AD6XL-WX-0.1,2013-03-17 12:29:00,
2013-03-17 05:34:00,36.6,36.6,30.27,North,-999,-999.0,-999.0,100,0.00,,,0.00,AD6XL-WX-0.1,2013-03-17 12:34:00,
2013-03-17 05:39:00,36.4,36.4,30.27,North,-999,-999.0,-999.0,100,0.00,,,0.00,AD6XL-WX-0.1,2013-03-17 12:39:00,
2013-03-17 05:44:00,36.3,36.3,30.27,North,-999,-999.0,-999.0,100,0.00,,,0.00,AD6XL-WX-0.1,2013-03-17 12:44:00,
2013-03-17 05:49:00,36.3,36.3,30.28,North,-999,-999.0,-999.0,100,0.00,,,0.00,AD6XL-WX-0.1,2013-03-17 12:49:00,
2013-03-17 05:54:00,36.3,36.3,30.28,North,-999,-999.0,-999.0,100,0.00,,,0.00,AD6XL-WX-0.1,2013-03-17 12:54:00,
2013-03-17 05:59:00,36.4,36.4,30.28,North,-999,-999.0,-999.0,100,0.00,,,0.00,AD6XL-WX-0.1,2013-03-17 12:59:00,
2013-03-17 06:04:00,36.5,36.5,30.28,North,-999,-999.0,-999.0,99,0.00,,,0.00,AD6XL-WX-0.1,2013-03-17 13:04:00,
2013-03-17 06:10:00,36.7,36.7,30.28,North,-999,-999.0,-999.0,99,0.00,,,0.00,AD6XL-WX-0.1,2013-03-17 13:10:00,
2013-03-17 06:15:00,36.7,36.7,30.28,North,-999,-999.0,-999.0,99,0.00,,,0.00,AD6XL-WX-0.1,2013-03-17 13:15:00,
2013-03-17 06:20:00,36.8,36.7,30.28,North,-999,-999.0,-999.0,99,0.00,,,0.00,AD6XL-WX-0.1,2013-03-17 13:20:00,
2013-03-17 06:25:00,36.9,36.7,30.29,North,-999,-999.0,-999.0,99,0.00,,,0.00,AD6XL-WX-0.1,2013-03-17 13:25:00,
2013-03-17 06:30:00,37.0,36.7,30.29,North,-999,-999.0,-999.0,99,0.00,,,0.00,AD6XL-WX-0.1,2013-03-17 13:30:00,
2013-03-17 06:35:00,37.0,36.7,30.29,North,-999,-999.0,-999.0,98,0.00,,,0.00,AD6XL-WX-0.1,2013-03-17 13:35:00,
2013-03-17 06:40:00,37.0,36.7,30.29,North,-999,-999.0,-999.0,98,0.00,,,0.00,AD6XL-WX-0.1,2013-03-17 13:40:00,
2013-03-17 06:45:00,36.9,36.6,30.29,North,-999,-999.0,-999.0,98,0.00,,,0.00,AD6XL-WX-0.1,2013-03-17 13:45:00,
2013-03-17 06:50:00,36.8,36.6,30.29,North,-999,-999.0,-999.0,99,0.00,,,0.00,AD6XL-WX-0.1,2013-03-17 13:50:00,
2013-03-17 06:55:00,36.7,36.6,30.29,North,-999,-999.0,-999.0,99,0.00,,,0.00,AD6XL-WX-0.1,2013-03-17 13:55:00,
2013-03-17 07:00:00,36.6,36.6,30.29,North,-999,-999.0,-999.0,99,0.00,,,0.00,AD6XL-WX-0.1,2013-03-17 14:00:00,
2013-03-17 07:05:00,36.5,36.5,30.29,North,-999,-999.0,-999.0,99,0.00,,,0.00,AD6XL-WX-0.1,2013-03-17 14:05:00,
2013-03-17 07:10:00,36.5,36.5,30.30,North,-999,-999.0,-999.0,100,0.00,,,0.00,AD6XL-WX-0.1,2013-03-17 14:10:00,
2013-03-17 07:16:00,36.4,36.4,30.30,North,-999,-999.0,-999.0,99,0.00,,,0.00,AD6XL-WX-0.1,2013-03-17 14:16:00,
2013-03-17 07:21:00,36.4,36.4,30.30,North,-999,-999.0,-999.0,99,0.00,,,0.00,AD6XL-WX-0.1,2013-03-17 14:21:00,
2013-03-17 07:26:00,36.4,36.4,30.30,North,-999,-999.0,-999.0,99,0.00,,,0.00,AD6XL-WX-0.1,2013-03-17 14:26:00,
2013-03-17 07:31:00,36.4,36.4,30.30,North,-999,-999.0,-999.0,99,0.00,,,0.00,AD6XL-WX-0.1,2013-03-17 14:31:00,
2013-03-17 07:36:00,36.5,36.5,30.30,North,-999,-999.0,-999.0,99,0.00,,,0.00,AD6XL-WX-0.1,2013-03-17 14:36:00,
2013-03-17 07:41:00,36.7,36.7,30.30,North,-999,-999.0,-999.0,99,0.00,,,0.00,AD6XL-WX-0.1,2013-03-17 14:41:00,
2013-03-17 07:46:00,36.7,36.7,30.30,North,-999,-999.0,-999.0,99,0.00,,,0.00,AD6XL-WX-0.1,2013-03-17 14:46:00,
2013-03-17 07:51:00,36.8,36.8,30.31,North,-999,-999.0,-999.0,99,0.00,,,0.00,AD6XL-WX-0.1,2013-03-17 14:51:00,
2013-03-17 07:57:00,36.9,36.9,30.31,North,-999,-999.0,-999.0,99,0.00,,,0.00,AD6XL-WX-0.1,2013-03-17 14:57:00,
2013-03-17 08:02:00,36.9,36.9,30.30,North,-999,-999.0,-999.0,99,0.00,,,0.00,AD6XL-WX-0.1,2013-03-17 15:02:00,
2013-03-17 08:07:00,36.9,36.9,30.30,North,-999,-999.0,-999.0,99,0.01,,,0.01,AD6XL-WX-0.1,2013-03-17 15:07:00,
2013-03-17 08:12:00,36.9,36.9,30.30,North,-999,-999.0,-999.0,99,0.01,,,0.01,AD6XL-WX-0.1,2013-03-17 15:12:00,
2013-03-17 08:17:00,36.9,36.9,30.30,North,-999,-999.0,-999.0,99,0.01,,,0.01,AD6XL-WX-0.1,2013-03-17 15:17:00,
2013-03-17 08:22:00,36.9,36.9,30.30,North,-999,-999.0,-999.0,99,0.01,,,0.01,AD6XL-WX-0.1,2013-03-17 15:22:00,
2013-03-17 08:27:00,37.0,37.0,30.30,North,-999,-999.0,-999.0,99,0.01,,,0.01,AD6XL-WX-0.1,2013-03-17 15:27:00,
2013-03-17 08:32:00,37.1,37.1,30.30,North,-999,-999.0,-999.0,100,0.01,,,0.01,AD6XL-WX-0.1,2013-03-17 15:32:00,
2013-03-17 08:37:00,37.2,37.2,30.31,North,-999,-999.0,-999.0,100,0.01,,,0.01,AD6XL-WX-0.1,2013-03-17 15:37:00,
2013-03-17 08:42:00,37.4,37.4,30.31,North,-999,-999.0,-999.0,100,0.01,,,0.01,AD6XL-WX-0.1,2013-03-17 15:42:00,
2013-03-17 08:48:00,37.6,37.6,30.31,North,-999,-999.0,-999.0,100,0.01,,,0.01,AD6XL-WX-0.1,2013-03-17 15:48:00,
2013-03-17 08:53:00,37.9,37.9,30.32,North,-999,-999.0,-999.0,99,0.01,,,0.01,AD6XL-WX-0.1,2013-03-17 15:53:00,
2013-03-17 08:58:00,38.2,38.2,30.32,North,-999,-999.0,-999.0,99,0.01,,,0.01,AD6XL-WX-0.1,2013-03-17 15:58:00,
2013-03-17 09:03:00,38.6,38.4,30.32,North,-999,-999.0,-999.0,99,0.00,,,0.01,AD6XL-WX-0.1,2013-03-17 16:03:00,
2013-03-17 09:08:00,39.1,38.5,30.32,North,-999,-999.0,-999.0,98,0.00,,,0.01,AD6XL-WX-0.1,2013-03-17 16:08:00,
2013-03-17 09:13:00,39.4,38.6,30.32,North,-999,-999.0,-999.0,97,0.00,,,0.01,AD6XL-WX-0.1,2013-03-17 16:13:00,
2013-03-17 09:18:00,39.6,38.7,30.32,North,-999,-999.0,-999.0,96,0.00,,,0.01,AD6XL-WX-0.1,2013-03-17 16:18:00,
2013-03-17 09:23:00,39.9,38.8,30.33,North,-999,-999.0,-999.0,96,0.00,,,0.01,AD6XL-WX-0.1,2013-03-17 16:23:00,
2013-03-17 09:28:00,40.2,39.0,30.33,North,-999,-999.0,-999.0,95,0.00,,,0.01,AD6XL-WX-0.1,2013-03-17 16:28:00,
2013-03-17 09:33:00,40.6,39.0,30.33,North,-999,-999.0,-999.0,93,0.00,,,0.01,AD6XL-WX-0.1,2013-03-17 16:33:00,
2013-03-17 09:38:00,40.9,39.1,30.33,North,-999,-999.0,-999.0,93,0.00,,,0.01,AD6XL-WX-0.1,2013-03-17 16:38:00,
2013-03-17 09:43:00,41.2,39.4,30.33,North,-999,-999.0,-999.0,93,0.00,,,0.01,AD6XL-WX-0.1,2013-03-17 16:43:00,
2013-03-17 09:48:00,41.4,39.3,30.33,North,-999,-999.0,-999.0,92,0.00,,,0.01,AD6XL-WX-0.1,2013-03-17 16:48:00,
2013-03-17 09:54:00,41.5,39.3,30.32,North,-999,-999.0,-999.0,91,0.00,,,0.01,AD6XL-WX-0.1,2013-03-17 16:54:00,
2013-03-17 09:59:00,41.5,39.3,30.32,North,-999,-999.0,-999.0,91,0.00,,,0.01,AD6XL-WX-0.1,2013-03-17 16:59:00,
2013-03-17 10:04:00,41.5,39.2,30.32,North,-999,-999.0,-999.0,91,0.00,,,0.01,AD6XL-WX-0.1,2013-03-17 17:04:00,
2013-03-17 10:09:00,41.5,39.2,30.32,North,-999,-999.0,-999.0,91,0.00,,,0.01,AD6XL-WX-0.1,2013-03-17 17:09:00,
2013-03-17 10:14:00,41.5,39.1,30.32,North,-999,-999.0,-999.0,91,0.00,,,0.01,AD6XL-WX-0.1,2013-03-17 17:14:00,
2013-03-17 10:19:00,41.5,39.1,30.32,North,-999,-999.0,-999.0,91,0.00,,,0.01,AD6XL-WX-0.1,2013-03-17 17:19:00,
2013-03-17 10:24:00,41.6,39.1,30.32,North,-999,-999.0,-999.0,90,0.00,,,0.01,AD6XL-WX-0.1,2013-03-17 17:24:00,
2013-03-17 10:29:00,41.7,39.1,30.32,North,-999,-999.0,-999.0,90,0.00,,,0.01,AD6XL-WX-0.1,2013-03-17 17:29:00,
2013-03-17 10:34:00,41.9,39.3,30.32,North,-999,-999.0,-999.0,90,0.00,,,0.01,AD6XL-WX-0.1,2013-03-17 17:34:00,
2013-03-17 10:39:00,42.2,39.5,30.32,North,-999,-999.0,-999.0,90,0.00,,,0.01,AD6XL-WX-0.1,2013-03-17 17:39:00,
2013-03-17 10:44:00,42.5,39.7,30.32,North,-999,-999.0,-999.0,89,0.00,,,0.01,AD6XL-WX-0.1,2013-03-17 17:44:00,
2013-03-17 10:49:00,43.1,40.1,30.32,North,-999,-999.0,-999.0,88,0.00,,,0.01,AD6XL-WX-0.1,2013-03-17 17:49:00,
2013-03-17 10:54:00,43.8,40.4,30.32,North,-999,-999.0,-999.0,87,0.00,,,0.01,AD6XL-WX-0.1,2013-03-17 17:54:00,
2013-03-17 10:59:00,44.3,40.5,30.32,North,-999,-999.0,-999.0,86,0.00,,,0.01,AD6XL-WX-0.1,2013-03-17 17:59:00,
2013-03-17 11:05:00,44.6,40.6,30.32,North,-999,-999.0,-999.0,85,0.00,,,0.01,AD6XL-WX-0.1,2013-03-17 18:05:00,
2013-03-17 11:10:00,44.8,40.5,30.31,North,-999,-999.0,-999.0,84,0.00,,,0.01,AD6XL-WX-0.1,2013-03-17 18:10:00,
2013-03-17 11:15:00,44.8,40.1,30.31,North,-999,-999.0,-999.0,83,0.00,,,0.01,AD6XL-WX-0.1,2013-03-17 18:15:00,
2013-03-17 11:20:00,45.0,40.1,30.31,North,-999,-999.0,-999.0,82,0.00,,,0.01,AD6XL-WX-0.1,2013-03-17 18:20:00,
2013-03-17 11:25:00,45.2,40.2,30.31,North,-999,-999.0,-999.0,82,0.00,,,0.01,AD6XL-WX-0.1,2013-03-17 18:25:00,
2013-03-17 11:30:00,45.4,40.2,30.31,North,-999,-999.0,-999.0,81,0.00,,,0.01,AD6XL-WX-0.1,2013-03-17 18:30:00,
2013-03-17 11:35:00,45.7,40.3,30.31,North,-999,-999.0,-999.0,81,0.00,,,0.01,AD6XL-WX-0.1,2013-03-17 18:35:00,
2013-03-17 11:40:00,46.0,39.8,30.31,North,-999,-999.0,-999.0,79,0.00,,,0.01,AD6XL-WX-0.1,2013-03-17 18:40:00,
2013-03-17 11:45:00,46.0,39.6,30.31,North,-999,-999.0,-999.0,78,0.00,,,0.01,AD6XL-WX-0.1,2013-03-17 18:45:00,
2013-03-17 11:50:00,46.1,39.7,30.30,North,-999,-999.0,-999.0,78,0.00,,,0.01,AD6XL-WX-0.1,2013-03-17 18:50:00,
2013-03-17 11:55:00,46.2,38.8,30.30,North,-999,-999.0,-999.0,75,0.00,,,0.01,AD6XL-WX-0.1,2013-03-17 18:55:00,
2013-03-17 12:00:00,46.5,38.5,30.30,North,-999,-999.0,-999.0,73,0.00,,,0.01,AD6XL-WX-0.1,2013-03-17 19:00:00,
2013-03-17 12:05:00,47.0,39.1,30.30,North,-999,-999.0,-999.0,73,0.00,,,0.01,AD6XL-WX-0.1,2013-03-17 19:05:00,
2013-03-17 12:10:00,47.6,38.8,30.30,North,-999,-999.0,-999.0,71,0.00,,,0.01,AD6XL-WX-0.1,2013-03-17 19:10:00,
2013-03-17 12:16:00,48.0,38.1,30.30,North,-999,-999.0,-999.0,68,0.00,,,0.01,AD6XL-WX-0.1,2013-03-17 19:16:00,
2013-03-17 12:21:00,48.1,38.0,30.30,North,-999,-999.0,-999.0,67,0.00,,,0.01,AD6XL-WX-0.1,2013-03-17 19:21:00,
2013-03-17 12:26:00,48.0,38.4,30.30,North,-999,-999.0,-999.0,69,0.00,,,0.01,AD6XL-WX-0.1,2013-03-17 19:26:00,
2013-03-17 12:31:00,48.1,38.9,30.30,North,-999,-999.0,-999.0,70,0.00,,,0.01,AD6XL-WX-0.1,2013-03-17 19:31:00,
2013-03-17 12:36:00,48.1,39.1,30.30,North,-999,-999.0,-999.0,70,0.00,,,0.01,AD6XL-WX-0.1,2013-03-17 19:36:00,
2013-03-17 12:41:00,48.4,39.5,30.30,North,-999,-999.0,-999.0,71,0.00,,,0.01,AD6XL-WX-0.1,2013-03-17 19:41:00,
2013-03-17 12:46:00,48.7,39.1,30.30,North,-999,-999.0,-999.0,69,0.00,,,0.01,AD6XL-WX-0.1,2013-03-17 19:46:00,
2013-03-17 12:52:00,48.8,38.2,30.30,North,-999,-999.0,-999.0,66,0.00,,,0.01,AD6XL-WX-0.1,2013-03-17 19:52:00,
2013-03-17 12:57:00,49.2,38.0,30.29,North,-999,-999.0,-999.0,65,0.00,,,0.01,AD6XL-WX-0.1,2013-03-17 19:57:00,
2013-03-17 13:02:00,49.6,38.2,30.29,North,-999,-999.0,-999.0,64,0.00,,,0.01,AD6XL-WX-0.1,2013-03-17 20:02:00,
2013-03-17 13:07:00,49.5,39.4,30.30,North,-999,-999.0,-999.0,68,0.00,,,0.01,AD6XL-WX-0.1,2013-03-17 20:07:00,
2013-03-17 13:12:00,48.3,40.7,30.30,North,-999,-999.0,-999.0,75,0.00,,,0.01,AD6XL-WX-0.1,2013-03-17 20:12:00,
2013-03-17 13:17:00,46.9,40.8,30.29,North,-999,-999.0,-999.0,79,0.00,,,0.01,AD6XL-WX-0.1,2013-03-17 20:17:00,
2013-03-17 13:22:00,46.2,41.1,30.29,North,-999,-999.0,-999.0,82,0.00,,,0.01,AD6XL-WX-0.1,2013-03-17 20:22:00,
2013-03-17 13:28:00,46.0,41.1,30.29,North,-999,-999.0,-999.0,82,0.01,,,0.02,AD6XL-WX-0.1,2013-03-17 20:28:00,
2013-03-17 13:33:00,46.0,40.8,30.29,North,-999,-999.0,-999.0,81,0.01,,,0.02,AD6XL-WX-0.1,2013-03-17 20:33:00,
2013-03-17 13:38:00,46.3,40.6,30.29,North,-999,-999.0,-999.0,80,0.01,,,0.02,AD6XL-WX-0.1,2013-03-17 20:38:00,
2013-03-17 13:43:00,46.7,41.0,30.29,North,-999,-999.0,-999.0,80,0.01,,,0.02,AD6XL-WX-0.1,2013-03-17 20:43:00,
2013-03-17 13:48:00,47.4,40.7,30.29,North,-999,-999.0,-999.0,77,0.01,,,0.02,AD6XL-WX-0.1,2013-03-17 20:48:00,
2013-03-17 13:53:00,48.3,41.1,30.29,North,-999,-999.0,-999.0,76,0.01,,,0.02,AD6XL-WX-0.1,2013-03-17 20:53:00,
2013-03-17 13:58:00,48.8,40.4,30.28,North,-999,-999.0,-999.0,72,0.01,,,0.02,AD6XL-WX-0.1,2013-03-17 20:58:00,
2013-03-17 14:03:00,49.1,39.2,30.28,North,-999,-999.0,-999.0,68,0.01,,,0.02,AD6XL-WX-0.1,2013-03-17 21:03:00,
2013-03-17 14:08:00,49.3,38.4,30.28,North,-999,-999.0,-999.0,65,0.01,,,0.02,AD6XL-WX-0.1,2013-03-17 21:08:00,
2013-03-17 14:13:00,49.6,38.4,30.28,North,-999,-999.0,-999.0,65,0.01,,,0.02,AD6XL-WX-0.1,2013-03-17 21:13:00,
2013-03-17 14:18:00,49.6,38.4,30.28,North,-999,-999.0,-999.0,65,0.01,,,0.02,AD6XL-WX-0.1,2013-03-17 21:18:00,
2013-03-17 14:23:00,49.6,38.4,30.28,North,-999,-999.0,-999.0,65,0.01,,,0.02,AD6XL-WX-0.1,2013-03-17 21:23:00,
2013-03-17 14:28:00,49.4,39.0,30.28,North,-999,-999.0,-999.0,67,0.00,,,0.02,AD6XL-WX-0.1,2013-03-17 21:28:00,
2013-03-17 14:34:00,49.0,40.6,30.28,North,-999,-999.0,-999.0,72,0.00,,,0.02,AD6XL-WX-0.1,2013-03-17 21:34:00,
2013-03-17 14:39:00,48.3,41.5,30.28,North,-999,-999.0,-999.0,77,0.00,,,0.02,AD6XL-WX-0.1,2013-03-17 21:39:00,
2013-03-17 14:44:00,47.8,41.9,30.28,North,-999,-999.0,-999.0,79,0.00,,,0.02,AD6XL-WX-0.1,2013-03-17 21:44:00,
2013-03-17 14:49:00,47.6,42.0,30.27,North,-999,-999.0,-999.0,80,0.00,,,0.02,AD6XL-WX-0.1,2013-03-17 21:49:00,
2013-03-17 14:54:00,47.8,42.2,30.27,North,-999,-999.0,-999.0,80,0.00,,,0.02,AD6XL-WX-0.1,2013-03-17 21:54:00,
2013-03-17 14:59:00,48.3,42.6,30.27,North,-999,-999.0,-999.0,80,0.00,,,0.02,AD6XL-WX-0.1,2013-03-17 21:59:00,
2013-03-17 15:04:00,48.9,42.9,30.27,North,-999,-999.0,-999.0,79,0.00,,,0.02,AD6XL-WX-0.1,2013-03-17 22:04:00,
2013-03-17 15:09:00,49.5,42.7,30.27,North,-999,-999.0,-999.0,77,0.00,,,0.02,AD6XL-WX-0.1,2013-03-17 22:09:00,
2013-03-17 15:14:00,49.9,42.7,30.27,North,-999,-999.0,-999.0,76,0.00,,,0.02,AD6XL-WX-0.1,2013-03-17 22:14:00,
2013-03-17 15:19:00,50.4,42.5,30.26,North,-999,-999.0,-999.0,74,0.00,,,0.02,AD6XL-WX-0.1,2013-03-17 22:19:00,
2013-03-17 15:24:00,50.9,41.7,30.26,North,-999,-999.0,-999.0,70,0.00,,,0.02,AD6XL-WX-0.1,2013-03-17 22:24:00,
2013-03-17 15:29:00,51.1,39.8,30.26,North,-999,-999.0,-999.0,65,0.00,,,0.02,AD6XL-WX-0.1,2013-03-17 22:29:00,
2013-03-17 15:34:00,51.3,39.5,30.26,North,-999,-999.0,-999.0,63,0.00,,,0.02,AD6XL-WX-0.1,2013-03-17 22:34:00,
2013-03-17 15:40:00,51.7,38.7,30.26,North,-999,-999.0,-999.0,61,0.00,,,0.02,AD6XL-WX-0.1,2013-03-17 22:40:00,
2013-03-17 15:45:00,52.1,37.6,30.26,North,-999,-999.0,-999.0,57,0.00,,,0.02,AD6XL-WX-0.1,2013-03-17 22:45:00,
2013-03-17 15:50:00,52.3,37.2,30.26,North,-999,-999.0,-999.0,56,0.00,,,0.02,AD6XL-WX-0.1,2013-03-17 22:50:00,
2013-03-17 15:55:00,52.3,37.0,30.26,North,-999,-999.0,-999.0,55,0.00,,,0.02,AD6XL-WX-0.1,2013-03-17 22:55:00,
2013-03-17 16:00:00,52.3,37.0,30.26,North,-999,-999.0,-999.0,55,0.00,,,0.02,AD6XL-WX-0.1,2013-03-17 23:00:00,
2013-03-17 16:05:00,52.4,37.3,30.26,North,-999,-999.0,-999.0,56,0.00,,,0.02,AD6XL-WX-0.1,2013-03-17 23:05:00,
2013-03-17 16:10:00,52.5,37.2,30.26,North,-999,-999.0,-999.0,55,0.00,,,0.02,AD6XL-WX-0.1,2013-03-17 23:10:00,
2013-03-17 16:15:00,52.3,37.4,30.26,North,-999,-999.0,-999.0,56,0.00,,,0.02,AD6XL-WX-0.1,2013-03-17 23:15:00,
2013-03-17 16:20:00,52.2,37.7,30.26,North,-999,-999.0,-999.0,57,0.00,,,0.02,AD6XL-WX-0.1,2013-03-17 23:20:00,
2013-03-17 16:25:00,52.0,37.8,30.26,North,-999,-999.0,-999.0,58,0.00,,,0.02,AD6XL-WX-0.1,2013-03-17 23:25:00,
2013-03-17 16:31:00,51.8,36.4,30.26,North,-999,-999.0,-999.0,55,0.00,,,0.02,AD6XL-WX-0.1,2013-03-17 23:31:00,
2013-03-17 16:36:00,51.6,35.1,30.26,North,-999,-999.0,-999.0,53,0.00,,,0.02,AD6XL-WX-0.1,2013-03-17 23:36:00,
2013-03-17 16:41:00,51.7,35.0,30.26,North,-999,-999.0,-999.0,52,0.00,,,0.02,AD6XL-WX-0.1,2013-03-17 23:41:00,
2013-03-17 16:46:00,51.8,35.4,30.26,North,-999,-999.0,-999.0,53,0.00,,,0.02,AD6XL-WX-0.1,2013-03-17 23:46:00,
2013-03-17 16:51:00,52.0,35.6,30.26,North,-999,-999.0,-999.0,53,0.00,,,0.02,AD6XL-WX-0.1,2013-03-17 23:51:00,
2013-03-17 16:56:00,52.1,35.6,30.26,North,-999,-999.0,-999.0,53,0.00,,,0.02,AD6XL-WX-0.1,2013-03-17 23:56:00,
2013-03-17 17:02:00,52.2,35.9,30.26,North,-999,-999.0,-999.0,53,0.00,,,0.02,AD6XL-WX-0.1,2013-03-18 00:02:00,
2013-03-17 17:07:00,52.1,35.7,30.26,North,-999,-999.0,-999.0,53,0.00,,,0.02,AD6XL-WX-0.1,2013-03-18 00:07:00,
2013-03-17 17:12:00,51.8,35.5,30.26,North,-999,-999.0,-999.0,53,0.00,,,0.02,AD6XL-WX-0.1,2013-03-18 00:12:00,
2013-03-17 17:17:00,51.6,35.7,30.26,North,-999,-999.0,-999.0,54,0.00,,,0.02,AD6XL-WX-0.1,2013-03-18 00:17:00,
2013-03-17 17:22:00,51.6,35.7,30.26,North,-999,-999.0,-999.0,54,0.00,,,0.02,AD6XL-WX-0.1,2013-03-18 00:22:00,
2013-03-17 17:27:00,51.6,35.9,30.26,North,-999,-999.0,-999.0,54,0.00,,,0.02,AD6XL-WX-0.1,2013-03-18 00:27:00,
2013-03-17 17:32:00,51.6,35.9,30.26,North,-999,-999.0,-999.0,54,0.00,,,0.02,AD6XL-WX-0.1,2013-03-18 00:32:00,
2013-03-17 17:37:00,51.6,35.7,30.26,North,-999,-999.0,-999.0,54,0.00,,,0.02,AD6XL-WX-0.1,2013-03-18 00:37:00,
2013-03-17 17:42:00,51.6,35.5,30.27,North,-999,-999.0,-999.0,53,0.00,,,0.02,AD6XL-WX-0.1,2013-03-18 00:42:00,
2013-03-17 17:48:00,51.6,35.5,30.27,North,-999,-999.0,-999.0,54,0.00,,,0.02,AD6XL-WX-0.1,2013-03-18 00:48:00,
2013-03-17 17:53:00,51.6,35.1,30.27,North,-999,-999.0,-999.0,53,0.00,,,0.02,AD6XL-WX-0.1,2013-03-18 00:53:00,
2013-03-17 17:58:00,51.5,34.9,30.27,North,-999,-999.0,-999.0,52,0.00,,,0.02,AD6XL-WX-0.1,2013-03-18 00:58:00,
2013-03-17 18:03:00,51.3,35.0,30.26,North,-999,-999.0,-999.0,53,0.00,,,0.02,AD6XL-WX-0.1,2013-03-18 01:03:00,
2013-03-17 18:08:00,51.0,35.1,30.26,North,-999,-999.0,-999.0,54,0.00,,,0.02,AD6XL-WX-0.1,2013-03-18 01:08:00,
2013-03-17 18:13:00,50.7,35.6,30.26,North,-999,-999.0,-999.0,56,0.00,,,0.02,AD6XL-WX-0.1,2013-03-18 01:13:00,
2013-03-17 18:18:00,50.5,36.2,30.26,North,-999,-999.0,-999.0,57,0.00,,,0.02,AD6XL-WX-0.1,2013-03-18 01:18:00,
2013-03-17 18:23:00,50.3,36.1,30.27,North,-999,-999.0,-999.0,57,0.00,,,0.02,AD6XL-WX-0.1,2013-03-18 01:23:00,
2013-03-17 18:28:00,50.1,36.1,30.26,North,-999,-999.0,-999.0,58,0.00,,,0.02,AD6XL-WX-0.1,2013-03-18 01:28:00,
2013-03-17 18:33:00,49.9,35.9,30.26,North,-999,-999.0,-999.0,58,0.00,,,0.02,AD6XL-WX-0.1,2013-03-18 01:33:00,
2013-03-17 18:38:00,49.7,35.8,30.26,North,-999,-999.0,-999.0,58,0.00,,,0.02,AD6XL-WX-0.1,2013-03-18 01:38:00,
2013-03-17 18:44:00,49.6,36.1,30.26,North,-999,-999.0,-999.0,59,0.00,,,0.02,AD6XL-WX-0.1,2013-03-18 01:44:00,
2013-03-17 18:49:00,49.4,36.1,30.26,North,-999,-999.0,-999.0,59,0.00,,,0.02,AD6XL-WX-0.1,2013-03-18 01:49:00,
2013-03-17 18:54:00,49.2,35.8,30.26,North,-999,-999.0,-999.0,59,0.00,,,0.02,AD6XL-WX-0.1,2013-03-18 01:54:00,
2013-03-17 18:59:00,49.0,35.8,30.26,North,-999,-999.0,-999.0,60,0.00,,,0.02,AD6XL-WX-0.1,2013-03-18 01:59:00,
2013-03-17 19:04:00,48.8,36.1,30.26,North,-999,-999.0,-999.0,61,0.00,,,0.02,AD6XL-WX-0.1,2013-03-18 02:04:00,
2013-03-17 19:09:00,48.6,36.1,30.26,North,-999,-999.0,-999.0,61,0.00,,,0.02,AD6XL-WX-0.1,2013-03-18 02:09:00,
2013-03-17 19:14:00,48.4,35.9,30.26,North,-999,-999.0,-999.0,61,0.00,,,0.02,AD6XL-WX-0.1,2013-03-18 02:14:00,
2013-03-17 19:19:00,48.0,35.9,30.26,North,-999,-999.0,-999.0,62,0.00,,,0.02,AD6XL-WX-0.1,2013-03-18 02:19:00,
2013-03-17 19:24:00,47.8,36.0,30.26,North,-999,-999.0,-999.0,63,0.00,,,0.02,AD6XL-WX-0.1,2013-03-18 02:24:00,
2013-03-17 19:29:00,47.5,35.9,30.26,North,-999,-999.0,-999.0,64,0.00,,,0.02,AD6XL-WX-0.1,2013-03-18 02:29:00,
2013-03-17 19:34:00,47.2,35.8,30.26,North,-999,-999.0,-999.0,64,0.00,,,0.02,AD6XL-WX-0.1,2013-03-18 02:34:00,
2013-03-17 19:39:00,47.0,35.5,30.26,North,-999,-999.0,-999.0,64,0.00,,,0.02,AD6XL-WX-0.1,2013-03-18 02:39:00,
2013-03-17 19:44:00,46.8,35.4,30.26,North,-999,-999.0,-999.0,64,0.00,,,0.02,AD6XL-WX-0.1,2013-03-18 02:44:00,
2013-03-17 19:49:00,46.6,35.5,30.26,North,-999,-999.0,-999.0,65,0.00,,,0.02,AD6XL-WX-0.1,2013-03-18 02:49:00,
2013-03-17 19:55:00,46.5,35.8,30.26,North,-999,-999.0,-999.0,65,0.00,,,0.02,AD6XL-WX-0.1,2013-03-18 02:55:00,
2013-03-17 20:00:00,46.3,35.7,30.26,North,-999,-999.0,-999.0,66,0.00,,,0.02,AD6XL-WX-0.1,2013-03-18 03:00:00,
2013-03-17 20:05:00,46.2,35.8,30.26,North,-999,-999.0,-999.0,66,0.00,,,0.02,AD6XL-WX-0.1,2013-03-18 03:05:00,
2013-03-17 20:10:00,46.1,36.0,30.26,North,-999,-999.0,-999.0,67,0.00,,,0.02,AD6XL-WX-0.1,2013-03-18 03:10:00,
2013-03-17 20:15:00,46.0,36.2,30.26,North,-999,-999.0,-999.0,68,0.00,,,0.02,AD6XL-WX-0.1,2013-03-18 03:15:00,
2013-03-17 20:20:00,46.0,36.4,30.26,North,-999,-999.0,-999.0,69,0.00,,,0.02,AD6XL-WX-0.1,2013-03-18 03:20:00,
2013-03-17 20:25:00,45.8,36.6,30.26,North,-999,-999.0,-999.0,69,0.00,,,0.02,AD6XL-WX-0.1,2013-03-18 03:25:00,
2013-03-17 20:30:00,45.7,36.6,30.26,North,-999,-999.0,-999.0,70,0.00,,,0.02,AD6XL-WX-0.1,2013-03-18 03:30:00,
2013-03-17 20:35:00,45.7,36.7,30.26,North,-999,-999.0,-999.0,70,0.00,,,0.02,AD6XL-WX-0.1,2013-03-18 03:35:00,
2013-03-17 20:40:00,45.5,36.8,30.26,North,-999,-999.0,-999.0,71,0.00,,,0.02,AD6XL-WX-0.1,2013-03-18 03:40:00,
2013-03-17 20:45:00,45.2,37.0,30.26,North,-999,-999.0,-999.0,72,0.00,,,0.02,AD6XL-WX-0.1,2013-03-18 03:45:00,
2013-03-17 20:50:00,45.0,37.2,30.26,North,-999,-999.0,-999.0,73,0.00,,,0.02,AD6XL-WX-0.1,2013-03-18 03:50:00,
2013-03-17 20:55:00,44.8,37.1,30.26,North,-999,-999.0,-999.0,74,0.00,,,0.02,AD6XL-WX-0.1,2013-03-18 03:55:00,
2013-03-17 21:00:00,44.7,37.0,30.26,North,-999,-999.0,-999.0,74,0.00,,,0.02,AD6XL-WX-0.1,2013-03-18 04:00:00,
2013-03-17 21:05:00,44.4,36.9,30.27,North,-999,-999.0,-999.0,74,0.00,,,0.02,AD6XL-WX-0.1,2013-03-18 04:05:00,
2013-03-17 21:10:00,44.3,36.8,30.27,North,-999,-999.0,-999.0,74,0.00,,,0.02,AD6XL-WX-0.1,2013-03-18 04:10:00,
2013-03-17 21:15:00,44.2,36.8,30.27,North,-999,-999.0,-999.0,74,0.00,,,0.02,AD6XL-WX-0.1,2013-03-18 04:15:00,
2013-03-17 21:21:00,44.1,36.8,30.27,North,-999,-999.0,-999.0,75,0.00,,,0.02,AD6XL-WX-0.1,2013-03-18 04:21:00,
2013-03-17 21:26:00,44.0,36.8,30.27,North,-999,-999.0,-999.0,75,0.00,,,0.02,AD6XL-WX-0.1,2013-03-18 04:26:00,
2013-03-17 21:31:00,43.9,37.0,30.27,North,-999,-999.0,-999.0,76,0.00,,,0.02,AD6XL-WX-0.1,2013-03-18 04:31:00,
2013-03-17 21:36:00,43.8,37.2,30.27,North,-999,-999.0,-999.0,77,0.00,,,0.02,AD6XL-WX-0.1,2013-03-18 04:36:00,
2013-03-17 21:41:00,43.6,37.2,30.27,North,-999,-999.0,-999.0,78,0.00,,,0.02,AD6XL-WX-0.1,2013-03-18 04:41:00,
2013-03-17 21:46:00,43.5,37.2,30.27,North,-999,-999.0,-999.0,78,0.00,,,0.02,AD6XL-WX-0.1,2013-03-18 04:46:00,
2013-03-17 21:52:00,43.3,37.2,30.27,North,-999,-999.0,-999.0,78,0.00,,,0.02,AD6XL-WX-0.1,2013-03-18 04:52:00,
2013-03-17 21:57:00,43.2,37.2,30.27,North,-999,-999.0,-999.0,79,0.00,,,0.02,AD6XL-WX-0.1,2013-03-18 04:57:00,
2013-03-17 22:02:00,43.0,37.2,30.27,North,-999,-999.0,-999.0,79,0.00,,,0.02,AD6XL-WX-0.1,2013-03-18 05:02:00,
2013-03-17 22:07:00,43.0,37.3,30.27,North,-999,-999.0,-999.0,80,0.00,,,0.02,AD6XL-WX-0.1,2013-03-18 05:07:00,
2013-03-17 22:12:00,42.9,37.4,30.27,North,-999,-999.0,-999.0,80,0.00,,,0.02,AD6XL-WX-0.1,2013-03-18 05:12:00,
2013-03-17 22:17:00,42.8,37.2,30.27,North,-999,-999.0,-999.0,80,0.00,,,0.02,AD6XL-WX-0.1,2013-03-18 05:17:00,
2013-03-17 22:22:00,42.6,37.1,30.27,North,-999,-999.0,-999.0,80,0.00,,,0.02,AD6XL-WX-0.1,2013-03-18 05:22:00,
2013-03-17 22:27:00,42.6,37.0,30.28,North,-999,-999.0,-999.0,80,0.00,,,0.02,AD6XL-WX-0.1,2013-03-18 05:27:00,
2013-03-17 22:32:00,42.6,36.9,30.28,North,-999,-999.0,-999.0,80,0.00,,,0.02,AD6XL-WX-0.1,2013-03-18 05:32:00,
2013-03-17 22:37:00,42.6,37.0,30.28,North,-999,-999.0,-999.0,80,0.00,,,0.02,AD6XL-WX-0.1,2013-03-18 05:37:00,
2013-03-17 22:42:00,42.6,37.1,30.28,North,-999,-999.0,-999.0,80,0.00,,,0.02,AD6XL-WX-0.1,2013-03-18 05:42:00,
2013-03-17 22:47:00,42.6,37.2,30.28,North,-999,-999.0,-999.0,80,0.00,,,0.02,AD6XL-WX-0.1,2013-03-18 05:47:00,
2013-03-17 22:53:00,42.6,37.4,30.28,North,-999,-999.0,-999.0,81,0.00,,,0.02,AD6XL-WX-0.1,2013-03-18 05:53:00,
2013-03-17 22:58:00,42.5,37.5,30.28,North,-999,-999.0,-999.0,82,0.00,,,0.02,AD6XL-WX-0.1,2013-03-18 05:58:00,
2013-03-17 23:03:00,42.4,37.5,30.28,North,-999,-999.0,-999.0,82,0.00,,,0.02,AD6XL-WX-0.1,2013-03-18 06:03:00,
2013-03-17 23:08:00,42.4,37.5,30.28,North,-999,-999.0,-999.0,82,0.00,,,0.02,AD6XL-WX-0.1,2013-03-18 06:08:00,
2013-03-17 23:13:00,42.4,37.6,30.28,North,-999,-999.0,-999.0,82,0.00,,,0.02,AD6XL-WX-0.1,2013-03-18 06:13:00,
2013-03-17 23:18:00,42.4,37.6,30.28,North,-999,-999.0,-999.0,82,0.00,,,0.02,AD6XL-WX-0.1,2013-03-18 06:18:00,
2013-03-17 23:23:00,42.4,37.6,30.28,North,-999,-999.0,-999.0,82,0.00,,,0.02,AD6XL-WX-0.1,2013-03-18 06:23:00,
2013-03-17 23:28:00,42.4,37.6,30.28,North,-999,-999.0,-999.0,82,0.00,,,0.02,AD6XL-WX-0.1,2013-03-18 06:28:00,
2013-03-17 23:33:00,42.3,37.5,30.28,North,-999,-999.0,-999.0,82,0.00,,,0.02,AD6XL-WX-0.1,2013-03-18 06:33:00,
2013-03-17 23:38:00,42.3,37.6,30.28,North,-999,-999.0,-999.0,83,0.00,,,0.02,AD6XL-WX-0.1,2013-03-18 06:38:00,
2013-03-17 23:43:00,42.3,37.6,30.28,North,-999,-999.0,-999.0,83,0.00,,,0.02,AD6XL-WX-0.1,2013-03-18 06:43:00,
2013-03-17 23:48:00,42.3,37.6,30.28,North,-999,-999.0,-999.0,83,0.00,,,0.02,AD6XL-WX-0.1,2013-03-18 06:48:00,
2013-03-17 23:53:00,42.3,37.7,30.28,North,-999,-999.0,-999.0,83,0.00,,,0.02,AD6XL-WX-0.1,2013-03-18 06:53:00,
2013-03-17 23:58:00,42.3,37.8,30.28,North,-999,-999.0,-999.0,83,0.00,,,0.02,AD6XL-WX-0.1,2013-03-18 06:58:00,